Time;durP1;ratioP1;P1;durP2;ratioP2;P2;SDS_P1;SDS_P2;PMS_P1;PMS_P2;Temp;Humidity;BMP_temperature;BMP_pressure;BME280_temperature;BME280_humidity;BME280_pressure;Samples;Min_cycle;Max_cycle;Signal;HPM_P1;HPM_P2
2022/02/27 00:01:29;;;;;;;10.43;5.93;;;0.50;99.90;;;;;;5034696;28;20493;-90
2022/02/27 00:03:56;;;;;;;13.60;6.68;;;0.30;99.90;;;;;;5034724;28;20140;-90
2022/02/27 00:06:23;;;;;;;14.40;6.70;;;0.10;99.90;;;;;;5034397;28;20486;-90
2022/02/27 00:08:51;;;;;;;12.93;5.88;;;0.00;99.90;;;;;;5034360;28;20585;-90
2022/02/27 00:11:18;;;;;;;12.27;5.88;;;-0.10;99.90;;;;;;5034454;28;20045;-90
2022/02/27 00:13:44;;;;;;;12.20;6.07;;;-0.30;99.90;;;;;;5034596;28;20456;-90
2022/02/27 00:16:11;;;;;;;14.27;6.28;;;-0.60;99.90;;;;;;5034463;28;20041;-90
2022/02/27 00:18:38;;;;;;;15.02;5.93;;;-0.80;99.90;;;;;;5034576;28;20049;-90
2022/02/27 00:21:05;;;;;;;12.73;6.07;;;-0.90;99.90;;;;;;5034365;28;20041;-90
2022/02/27 00:23:32;;;;;;;21.55;7.90;;;-1.00;99.90;;;;;;5034381;28;20059;-90
2022/02/27 00:25:58;;;;;;;13.00;6.25;;;-1.20;99.90;;;;;;5034319;28;20132;-91
2022/02/27 00:28:25;;;;;;;14.90;6.75;;;-1.20;99.90;;;;;;5034410;28;20136;-91
2022/02/27 00:30:52;;;;;;;12.98;5.10;;;-1.20;99.90;;;;;;5033924;28;20050;-90
2022/02/27 00:33:18;;;;;;;11.10;5.68;;;-1.40;99.90;;;;;;5034188;28;20064;-91
2022/02/27 00:35:46;;;;;;;10.18;5.63;;;-1.50;99.90;;;;;;5034126;28;20080;-92
2022/02/27 00:38:13;;;;;;;14.02;5.85;;;-1.50;99.90;;;;;;5033745;28;20148;-92
2022/02/27 00:40:40;;;;;;;15.07;5.93;;;-1.60;99.90;;;;;;5034801;28;20055;-92
2022/02/27 00:43:06;;;;;;;12.75;6.00;;;-1.70;99.90;;;;;;5040233;28;20121;-93
2022/02/27 00:45:33;;;;;;;17.42;6.53;;;-1.80;99.90;;;;;;5036847;28;20076;-93
2022/02/27 00:48:00;;;;;;;12.48;5.70;;;-2.00;99.90;;;;;;5034218;28;20469;-93
2022/02/27 00:50:27;;;;;;;15.10;5.88;;;-2.00;99.90;;;;;;5033926;28;20136;-93
2022/02/27 00:52:54;;;;;;;15.07;6.25;;;-2.00;99.90;;;;;;5033858;28;20060;-94
2022/02/27 00:55:23;;;;;;;19.38;6.65;;;-2.20;99.90;;;;;;5033980;28;20065;-94
2022/02/27 00:57:50;;;;;;;14.77;6.28;;;-2.20;99.90;;;;;;5033535;28;20117;-95
2022/02/27 01:00:17;;;;;;;14.00;6.18;;;-2.20;99.90;;;;;;5033915;28;20114;-95
2022/02/27 01:02:44;;;;;;;18.73;7.10;;;-2.20;99.90;;;;;;5033790;28;20063;-94
2022/02/27 01:05:20;;;;;;;17.70;7.95;;;-2.10;99.90;;;;;;5035853;28;20049;-93
2022/02/27 01:07:47;;;;;;;18.10;6.57;;;-2.00;99.90;;;;;;5033959;28;20088;-95
2022/02/27 01:10:14;;;;;;;19.85;7.10;;;-1.90;99.90;;;;;;5033575;28;20049;-95
2022/02/27 01:12:41;;;;;;;16.70;6.95;;;-1.90;99.90;;;;;;5033435;28;20136;-95
2022/02/27 01:15:09;;;;;;;15.68;7.75;;;-2.00;99.90;;;;;;5033330;28;20133;-95
2022/02/27 01:17:35;;;;;;;15.70;6.72;;;-1.90;99.90;;;;;;5032439;28;20053;-95
2022/02/27 01:20:05;;;;;;;18.48;6.97;;;-2.00;99.90;;;;;;5033272;28;20144;-95
2022/02/27 01:22:32;;;;;;;17.52;7.10;;;-1.90;99.90;;;;;;5033291;28;20478;-95
2022/02/27 01:24:59;;;;;;;14.45;6.53;;;-1.90;99.90;;;;;;5033085;28;20133;-95
2022/02/27 01:27:26;;;;;;;15.15;5.63;;;-2.00;99.90;;;;;;5033156;28;20473;-95
2022/02/27 01:29:53;;;;;;;17.48;6.63;;;-2.10;99.90;;;;;;5033420;28;20468;-95
2022/02/27 01:32:20;;;;;;;14.57;5.97;;;-2.10;99.90;;;;;;5032810;28;20144;-94
2022/02/27 01:34:48;;;;;;;15.40;6.28;;;-2.10;99.90;;;;;;5033140;28;20054;-95
2022/02/27 01:37:17;;;;;;;12.85;6.22;;;-2.20;99.90;;;;;;5032605;28;20084;-95
2022/02/27 01:39:44;;;;;;;13.60;6.35;;;-2.10;99.90;;;;;;5033060;28;20136;-95
2022/02/27 01:42:16;;;;;;;13.90;6.32;;;-2.10;99.90;;;;;;5033061;28;20548;-95
2022/02/27 01:44:44;;;;;;;14.63;5.88;;;-2.10;99.90;;;;;;5032866;28;20069;-95
2022/02/27 01:47:12;;;;;;;13.23;5.55;;;-2.20;99.90;;;;;;5033065;28;20156;-95
2022/02/27 01:49:40;;;;;;;12.25;5.40;;;-2.20;99.90;;;;;;5032903;28;20072;-95
2022/02/27 01:52:08;;;;;;;19.08;6.30;;;-2.30;99.90;;;;;;5032820;28;20152;-95
2022/02/27 01:54:35;;;;;;;16.02;6.70;;;-2.50;99.90;;;;;;5033249;28;20117;-95
2022/02/27 01:57:03;;;;;;;19.08;5.78;;;-2.60;99.90;;;;;;5037892;28;20136;-94
2022/02/27 01:59:30;;;;;;;11.93;6.35;;;-2.60;99.90;;;;;;5034555;28;20528;-96
2022/02/27 02:01:57;;;;;;;13.85;5.28;;;-2.60;99.90;;;;;;5032720;28;20144;-95
2022/02/27 02:04:24;;;;;;;15.45;5.53;;;-2.50;99.90;;;;;;5032494;28;20045;-95
2022/02/27 02:06:51;;;;;;;12.23;5.65;;;-2.50;99.90;;;;;;5032766;28;20125;-95
2022/02/27 02:09:17;;;;;;;11.95;6.00;;;-2.70;99.90;;;;;;5032617;28;20076;-95
2022/02/27 02:11:44;;;;;;;12.38;6.18;;;-2.70;99.90;;;;;;5032646;28;20196;-95
2022/02/27 02:14:11;;;;;;;16.83;6.65;;;-2.80;99.90;;;;;;5032567;28;20076;-95
2022/02/27 02:16:47;;;;;;;18.33;7.32;;;-2.80;99.90;;;;;;5032439;28;20132;-94
2022/02/27 02:19:15;;;;;;;21.52;7.80;;;-2.80;99.90;;;;;;5032374;28;20057;-96
2022/02/27 02:21:45;;;;;;;16.90;7.60;;;-2.80;99.90;;;;;;5032415;28;20073;-96
2022/02/27 02:24:14;;;;;;;19.75;7.00;;;-2.70;99.90;;;;;;5032797;28;20077;-96
2022/02/27 02:26:43;;;;;;;17.15;7.15;;;-2.80;99.90;;;;;;5032622;28;20076;-96
2022/02/27 02:29:15;;;;;;;20.10;7.15;;;-2.90;99.90;;;;;;5035594;28;20468;-96
2022/02/27 02:31:43;;;;;;;19.17;6.40;;;-2.90;99.90;;;;;;5036591;28;20050;-96
2022/02/27 02:34:12;;;;;;;12.88;6.05;;;-2.90;99.90;;;;;;5036661;28;20548;-96
2022/02/27 02:36:42;;;;;;;14.63;6.55;;;-2.90;99.90;;;;;;5036165;28;20111;-96
2022/02/27 02:39:11;;;;;;;16.77;6.35;;;-2.90;99.90;;;;;;5036479;28;20100;-96
2022/02/27 02:41:39;;;;;;;12.57;5.88;;;-2.90;99.90;;;;;;5036366;28;20133;-96
2022/02/27 02:44:07;;;;;;;15.77;5.85;;;-3.00;99.90;;;;;;5036272;28;20088;-96
2022/02/27 02:46:35;;;;;;;17.70;6.03;;;-3.10;99.90;;;;;;5037934;28;20052;-96
2022/02/27 02:49:03;;;;;;;15.02;5.65;;;-3.20;99.90;;;;;;5037133;28;20115;-96
2022/02/27 02:51:30;;;;;;;17.08;5.63;;;-3.20;99.90;;;;;;5036965;28;20137;-95
2022/02/27 02:53:57;;;;;;;14.40;5.65;;;-3.20;99.90;;;;;;5036622;28;20141;-95
2022/02/27 02:56:24;;;;;;;13.38;5.60;;;-3.20;99.90;;;;;;5036685;28;20076;-96
2022/02/27 02:58:51;;;;;;;14.68;6.63;;;-3.20;99.90;;;;;;5036572;28;20478;-95
2022/02/27 03:01:19;;;;;;;13.15;5.80;;;-3.30;99.90;;;;;;5036651;28;20065;-96
2022/02/27 03:03:48;;;;;;;15.20;6.35;;;-3.20;99.90;;;;;;5036998;28;20592;-96
2022/02/27 03:06:14;;;;;;;12.65;6.28;;;-3.20;99.90;;;;;;5036426;28;20054;-96
2022/02/27 03:08:42;;;;;;;11.43;5.75;;;-3.30;99.90;;;;;;5036890;28;20136;-95
2022/02/27 03:11:10;;;;;;;14.18;6.03;;;-3.40;99.90;;;;;;5044251;28;20084;-96
2022/02/27 03:13:37;;;;;;;11.85;5.45;;;-3.40;99.90;;;;;;5039811;28;20073;-95
2022/02/27 03:16:04;;;;;;;15.80;5.65;;;-3.30;99.90;;;;;;5036237;28;20088;-96
2022/02/27 03:18:32;;;;;;;17.10;7.90;;;-3.30;99.90;;;;;;5037851;28;20049;-95
2022/02/27 03:20:59;;;;;;;15.82;6.75;;;-3.50;99.90;;;;;;5036559;28;20136;-96
2022/02/27 03:23:26;;;;;;;14.55;5.90;;;-3.40;99.90;;;;;;5036400;28;20107;-96
2022/02/27 03:25:53;;;;;;;15.68;5.50;;;-3.40;99.90;;;;;;5036411;28;20485;-96
2022/02/27 03:28:20;;;;;;;12.77;5.60;;;-3.40;99.90;;;;;;5036364;28;20075;-96
2022/02/27 03:30:47;;;;;;;15.50;7.13;;;-3.50;99.90;;;;;;5036074;28;20069;-96
2022/02/27 03:33:14;;;;;;;15.82;6.15;;;-3.60;99.90;;;;;;5036482;28;20160;-96
2022/02/27 03:35:41;;;;;;;14.90;6.10;;;-3.50;99.90;;;;;;5039168;28;20402;-96
2022/02/27 03:38:10;;;;;;;11.15;5.43;;;-3.60;99.90;;;;;;5035657;28;20465;-96
2022/02/27 03:40:37;;;;;;;15.10;6.57;;;-3.60;99.90;;;;;;5035056;28;20076;-96
2022/02/27 03:43:04;;;;;;;20.02;7.60;;;-3.50;99.90;;;;;;5036028;28;20073;-96
2022/02/27 03:45:31;;;;;;;12.63;7.03;;;-3.50;99.90;;;;;;5036365;28;20053;-96
2022/02/27 03:47:58;;;;;;;19.80;6.75;;;-3.60;99.90;;;;;;5035935;28;20144;-96
2022/02/27 03:50:25;;;;;;;19.30;6.47;;;-3.60;99.90;;;;;;5036491;28;20084;-96
2022/02/27 03:52:52;;;;;;;15.98;6.72;;;-3.60;99.90;;;;;;5037084;28;20076;-96
2022/02/27 03:55:19;;;;;;;17.75;6.63;;;-3.50;99.90;;;;;;5037200;28;20132;-96
2022/02/27 03:57:46;;;;;;;18.15;7.70;;;-3.50;99.90;;;;;;5041018;28;20102;-96
2022/02/27 04:00:16;;;;;;;18.83;6.97;;;-3.50;99.90;;;;;;5042443;28;20105;-96
2022/02/27 04:02:47;;;;;;;9.05;5.65;;;-3.50;99.90;;;;;;5037728;28;20045;-96
2022/02/27 04:05:16;;;;;;;17.27;6.78;;;-3.60;99.90;;;;;;5037243;28;20063;-96
2022/02/27 04:07:43;;;;;;;12.65;6.43;;;-3.70;99.90;;;;;;5036900;28;20141;-96
2022/02/27 04:10:11;;;;;;;22.90;6.05;;;-3.70;99.90;;;;;;5038204;28;20045;-96
2022/02/27 04:12:38;;;;;;;16.58;6.65;;;-3.80;99.90;;;;;;5036673;28;20486;-96
2022/02/27 04:15:05;;;;;;;21.98;7.25;;;-3.90;99.90;;;;;;5036222;28;20057;-96
2022/02/27 04:17:32;;;;;;;14.23;6.45;;;-3.90;99.90;;;;;;5035613;28;20109;-96
2022/02/27 04:19:59;;;;;;;11.15;5.63;;;-3.90;99.90;;;;;;5035461;28;20073;-96
2022/02/27 04:22:27;;;;;;;13.27;6.10;;;-4.00;99.90;;;;;;5035680;28;20080;-96
2022/02/27 04:24:54;;;;;;;9.32;5.18;;;-4.00;99.90;;;;;;5045031;28;20072;-96
2022/02/27 04:27:25;;;;;;;11.60;5.75;;;-4.00;99.90;;;;;;5046890;28;20111;-96
2022/02/27 04:29:52;;;;;;;15.50;5.90;;;-4.00;99.90;;;;;;5036642;28;20124;-96
2022/02/27 04:32:19;;;;;;;16.83;6.03;;;-4.00;99.90;;;;;;5036467;28;20181;-96
2022/02/27 04:34:46;;;;;;;10.73;5.75;;;-4.00;99.90;;;;;;5037104;28;20069;-96
2022/02/27 04:37:12;;;;;;;15.68;5.72;;;-3.90;99.90;;;;;;5037675;28;20065;-96
2022/02/27 04:39:39;;;;;;;18.80;6.20;;;-3.90;99.90;;;;;;5038084;28;20081;-96
2022/02/27 04:42:06;;;;;;;14.38;6.63;;;-3.90;99.90;;;;;;5039145;28;20050;-96
2022/02/27 04:44:33;;;;;;;13.52;5.65;;;-3.80;99.90;;;;;;5039268;28;20144;-96
2022/02/27 04:47:01;;;;;;;14.88;5.43;;;-3.80;99.90;;;;;;5045457;28;20049;-96
2022/02/27 04:49:27;;;;;;;12.13;5.50;;;-3.70;99.90;;;;;;5049504;28;20053;-96
2022/02/27 04:51:54;;;;;;;15.65;6.32;;;-3.70;99.90;;;;;;5050807;28;20127;-96
2022/02/27 04:54:21;;;;;;;17.15;6.15;;;-3.70;99.90;;;;;;5049818;28;20058;-96
2022/02/27 04:56:48;;;;;;;17.35;6.38;;;-3.80;99.90;;;;;;5035718;28;20076;-96
2022/02/27 04:59:15;;;;;;;11.55;5.65;;;-3.70;99.90;;;;;;5037874;28;20049;-96
2022/02/27 05:01:42;;;;;;;10.85;5.65;;;-3.70;99.90;;;;;;5035932;28;20076;-96
2022/02/27 05:04:09;;;;;;;14.52;5.32;;;-3.70;99.90;;;;;;5036096;28;20057;-96
2022/02/27 05:06:37;;;;;;;10.02;5.20;;;-3.80;99.90;;;;;;5036219;28;20059;-96
2022/02/27 05:09:04;;;;;;;13.90;6.25;;;-3.90;99.90;;;;;;5036508;28;20049;-96
2022/02/27 05:11:31;;;;;;;13.15;6.00;;;-4.00;99.90;;;;;;5035731;28;20073;-96
2022/02/27 05:13:59;;;;;;;16.90;5.95;;;-4.10;99.90;;;;;;5035686;28;20045;-96
2022/02/27 05:16:28;;;;;;;13.95;5.53;;;-4.00;99.90;;;;;;5037005;28;20049;-96
2022/02/27 05:18:55;;;;;;;19.17;5.43;;;-4.10;99.90;;;;;;5036031;28;20053;-96
2022/02/27 05:21:22;;;;;;;13.02;5.85;;;-4.10;99.90;;;;;;5036583;28;20072;-96
2022/02/27 05:23:49;;;;;;;13.95;5.20;;;-4.20;99.90;;;;;;5036519;28;20103;-96
2022/02/27 05:26:16;;;;;;;16.85;6.15;;;-4.30;99.90;;;;;;5037860;28;20042;-96
2022/02/27 05:28:44;;;;;;;17.55;6.15;;;-4.30;99.90;;;;;;5037471;28;20049;-96
2022/02/27 05:31:12;;;;;;;12.10;5.47;;;-4.30;99.90;;;;;;5035292;28;20458;-96
2022/02/27 05:33:40;;;;;;;13.48;6.18;;;-4.20;99.90;;;;;;5036603;28;20046;-96
2022/02/27 05:36:07;;;;;;;17.75;5.78;;;-4.20;99.90;;;;;;5036071;28;20484;-96
2022/02/27 05:38:34;;;;;;;16.63;6.10;;;-4.10;99.90;;;;;;5042946;28;20084;-96
2022/02/27 05:41:03;;;;;;;11.98;6.32;;;-4.00;99.90;;;;;;5051813;28;20102;-96
2022/02/27 05:43:33;;;;;;;15.50;7.05;;;-4.00;99.90;;;;;;5040397;28;20054;-96
2022/02/27 05:46:01;;;;;;;15.32;6.93;;;-4.00;99.90;;;;;;5043721;28;20045;-96
2022/02/27 05:48:32;;;;;;;19.70;6.55;;;-4.10;99.90;;;;;;5045407;28;20057;-96
2022/02/27 05:51:01;;;;;;;17.40;6.75;;;-4.10;99.90;;;;;;5047915;28;20172;-96
2022/02/27 05:53:46;;;;;;;16.10;7.50;;;-4.20;99.90;;;;;;5048008;28;20109;-96
2022/02/27 05:56:20;;;;;;;11.23;6.50;;;-4.20;99.90;;;;;;5049303;28;20049;-96
2022/02/27 05:58:54;;;;;;;14.43;7.07;;;-4.30;99.90;;;;;;5018288;28;20060;-96
2022/02/27 06:01:45;;;;;;;13.70;6.38;;;-4.30;99.90;;;;;;5050466;28;20049;-96
2022/02/27 06:04:56;;;;;;;16.90;5.22;;;-4.40;99.90;;;;;;5051775;28;20050;-96
2022/02/27 06:07:28;;;;;;;8.68;4.95;;;-4.40;99.90;;;;;;5049811;28;20054;-96
2022/02/27 06:10:12;;;;;;;15.20;6.07;;;-4.40;99.90;;;;;;5050836;28;20140;-96
2022/02/27 06:13:10;;;;;;;19.55;6.32;;;-4.30;99.90;;;;;;5051114;28;20084;-96
2022/02/27 06:16:06;;;;;;;22.63;6.85;;;-4.40;99.90;;;;;;5049279;28;20140;-96
2022/02/27 06:18:50;;;;;;;14.63;6.07;;;-4.50;99.90;;;;;;5034905;28;20049;-96
2022/02/27 06:21:33;;;;;;;15.10;5.70;;;-4.50;99.90;;;;;;5033794;28;20065;-96
2022/02/27 06:24:03;;;;;;;11.63;5.30;;;-4.50;99.90;;;;;;5027746;28;20060;-96
2022/02/27 06:26:48;;;;;;;15.65;5.85;;;-4.40;99.90;;;;;;5016251;28;20060;-96
2022/02/27 06:29:23;;;;;;;14.38;5.93;;;-4.20;99.90;;;;;;5028855;28;20109;-96
2022/02/27 06:32:24;;;;;;;18.08;5.68;;;-4.20;99.90;;;;;;4993494;28;20053;-96
2022/02/27 06:35:11;;;;;;;15.85;6.05;;;-4.20;99.90;;;;;;5031439;28;20046;-96
2022/02/27 06:38:15;;;;;;;12.30;5.40;;;-4.20;99.90;;;;;;5032440;28;20073;-95
2022/02/27 06:40:50;;;;;;;11.05;5.07;;;-4.00;99.90;;;;;;5032611;28;20056;-96
2022/02/27 06:43:38;;;;;;;11.23;6.57;;;-3.90;99.90;;;;;;5018643;28;20080;-96
2022/02/27 06:46:33;;;;;;;13.70;6.15;;;-3.90;99.90;;;;;;5017954;28;20085;-96
2022/02/27 06:49:21;;;;;;;23.65;13.13;;;-3.90;99.90;;;;;;5048530;28;20155;-96
2022/02/27 06:52:14;;;;;;;22.17;11.77;;;-3.80;99.90;;;;;;5019851;28;20026;-96
2022/02/27 06:55:15;;;;;;;18.65;9.10;;;-3.70;99.90;;;;;;5021690;28;20065;-95
2022/02/27 06:58:01;;;;;;;76.57;27.42;;;-3.60;99.90;;;;;;5019088;28;20049;-96
2022/02/27 07:00:46;;;;;;;61.08;27.83;;;-3.60;99.90;;;;;;5015164;28;20041;-96
2022/02/27 07:04:00;;;;;;;33.33;15.98;;;-3.50;99.90;;;;;;5030964;28;20117;-96
2022/02/27 07:06:42;;;;;;;28.20;14.60;;;-3.40;99.90;;;;;;5010790;23;20080;-82
2022/02/27 07:09:09;;;;;;;30.60;14.50;;;-3.40;99.90;;;;;;5033442;28;20422;-82
2022/02/27 07:11:36;;;;;;;16.45;9.43;;;-3.30;99.90;;;;;;5033052;28;20136;-83
2022/02/27 07:14:03;;;;;;;23.50;10.10;;;-3.20;99.90;;;;;;5033158;28;20461;-83
2022/02/27 07:16:30;;;;;;;19.30;10.60;;;-3.20;99.90;;;;;;5036078;28;20053;-83
2022/02/27 07:18:57;;;;;;;17.83;9.68;;;-3.20;99.90;;;;;;5036464;28;20132;-83
2022/02/27 07:21:24;;;;;;;17.65;8.00;;;-3.10;99.90;;;;;;5037129;28;20064;-82
2022/02/27 07:23:53;;;;;;;14.82;6.80;;;-3.10;99.90;;;;;;5036556;28;20049;-83
2022/02/27 07:26:20;;;;;;;14.90;5.88;;;-3.10;99.90;;;;;;5037581;28;20131;-82
2022/02/27 07:28:48;;;;;;;19.38;8.27;;;-3.10;99.90;;;;;;5037475;28;20083;-83
2022/02/27 07:31:14;;;;;;;16.48;11.10;;;-3.10;99.90;;;;;;5036101;28;20541;-82
2022/02/27 07:33:49;;;;;;;21.33;9.27;;;-3.10;99.90;;;;;;5036233;28;20136;-83
2022/02/27 07:36:17;;;;;;;23.85;7.53;;;-3.00;99.90;;;;;;5036552;28;20085;-83
2022/02/27 07:38:48;;;;;;;16.17;7.53;;;-2.90;99.90;;;;;;5036176;28;20490;-83
2022/02/27 07:41:15;;;;;;;15.10;7.05;;;-2.80;99.90;;;;;;5036373;28;20046;-83
2022/02/27 07:43:41;;;;;;;16.00;6.65;;;-2.80;99.90;;;;;;5036802;28;20132;-83
2022/02/27 07:46:08;;;;;;;19.90;7.65;;;-2.70;99.90;;;;;;5036397;28;20175;-83
2022/02/27 07:48:40;;;;;;;12.77;7.15;;;-2.70;99.90;;;;;;5037690;28;20049;-83
2022/02/27 07:51:07;;;;;;;21.80;6.95;;;-2.60;99.90;;;;;;5036349;28;20543;-83
2022/02/27 07:53:34;;;;;;;22.58;7.38;;;-2.60;99.90;;;;;;5037193;28;20085;-84
2022/02/27 07:56:03;;;;;;;34.72;9.40;;;-2.50;99.90;;;;;;5036987;28;20113;-84
2022/02/27 07:58:29;;;;;;;48.53;11.65;;;-2.40;99.90;;;;;;5036097;28;20046;-84
2022/02/27 08:00:56;;;;;;;43.85;14.95;;;-2.00;99.90;;;;;;5067807;28;20054;-84
2022/02/27 08:03:35;;;;;;;280.92;64.35;;;-1.30;99.90;;;;;;5059396;28;20041;-85
2022/02/27 08:06:03;;;;;;;42.05;14.75;;;0.00;99.90;;;;;;5056224;28;20597;-85
2022/02/27 08:08:33;;;;;;;34.35;10.98;;;1.30;99.90;;;;;;5040451;28;20084;-84
2022/02/27 08:11:07;;;;;;;24.15;8.55;;;2.40;99.90;;;;;;5038686;28;20057;-86
2022/02/27 08:13:34;;;;;;;23.23;8.55;;;4.50;99.90;;;;;;5039647;28;20052;-85
2022/02/27 08:16:01;;;;;;;24.40;6.25;;;6.20;99.90;;;;;;5037561;28;20499;-85
2022/02/27 08:18:29;;;;;;;18.70;7.03;;;6.10;99.90;;;;;;5036744;28;20161;-84
2022/02/27 08:20:57;;;;;;;18.95;4.80;;;6.10;99.90;;;;;;5036207;28;20608;-84
2022/02/27 08:23:24;;;;;;;15.43;3.83;;;5.50;99.90;;;;;;5039665;28;20064;-84
2022/02/27 08:25:53;;;;;;;12.27;4.05;;;5.40;99.90;;;;;;5039116;28;20045;-84
2022/02/27 08:28:28;;;;;;;16.25;4.07;;;6.60;99.90;;;;;;5037401;28;20072;-83
2022/02/27 08:30:58;;;;;;;21.13;10.40;;;8.10;99.90;;;;;;5036338;28;20053;-84
2022/02/27 08:33:26;;;;;;;13.82;3.55;;;9.80;99.90;;;;;;5037249;28;20410;-82
2022/02/27 08:35:57;;;;;;;12.85;3.55;;;11.30;99.90;;;;;;5036608;28;20045;-84
2022/02/27 08:38:25;;;;;;;10.27;3.33;;;12.20;94.90;;;;;;5037590;28;20069;-83
2022/02/27 08:40:56;;;;;;;10.10;3.63;;;12.60;91.00;;;;;;5036565;28;20041;-81
2022/02/27 08:43:24;;;;;;;12.15;3.92;;;10.30;90.20;;;;;;5036180;28;20064;-81
2022/02/27 08:45:55;;;;;;;9.68;3.47;;;9.50;93.40;;;;;;5035725;28;20124;-81
2022/02/27 08:48:23;;;;;;;8.00;2.92;;;9.40;94.50;;;;;;5036509;28;20095;-82
2022/02/27 08:50:55;;;;;;;9.02;3.15;;;9.40;95.30;;;;;;5035510;28;20817;-81
2022/02/27 08:53:21;;;;;;;8.98;3.63;;;11.20;92.60;;;;;;5036294;28;20077;-81
2022/02/27 08:55:49;;;;;;;8.13;3.60;;;12.40;90.50;;;;;;5035923;28;20081;-81
2022/02/27 08:58:16;;;;;;;11.70;3.25;;;13.20;84.00;;;;;;5036675;28;20105;-81
2022/02/27 09:00:43;;;;;;;7.93;3.15;;;13.80;81.40;;;;;;5035979;28;20085;-81
2022/02/27 09:03:10;;;;;;;12.05;3.70;;;12.50;82.70;;;;;;5035668;28;20495;-81
2022/02/27 09:05:37;;;;;;;10.20;4.03;;;11.50;85.50;;;;;;5036278;28;20137;-82
2022/02/27 09:08:04;;;;;;;9.35;3.15;;;11.50;86.60;;;;;;5036382;28;20485;-81
2022/02/27 09:10:33;;;;;;;9.90;3.80;;;11.50;90.10;;;;;;5036602;28;20053;-81
2022/02/27 09:13:00;;;;;;;7.18;3.10;;;12.10;87.30;;;;;;5035948;28;20542;-82
2022/02/27 09:15:27;;;;;;;8.23;3.33;;;13.50;82.70;;;;;;5036096;28;20069;-82
2022/02/27 09:17:54;;;;;;;82.82;5.25;;;14.60;81.10;;;;;;5035600;28;20085;-80
2022/02/27 09:20:20;;;;;;;10.57;4.07;;;14.30;78.10;;;;;;5037702;28;20081;-82
2022/02/27 09:22:52;;;;;;;142.38;94.97;;;13.20;77.70;;;;;;5037070;28;20414;-81
2022/02/27 09:25:18;;;;;;;8.70;3.92;;;12.30;78.40;;;;;;5034101;28;20073;-81
2022/02/27 09:28:05;;;;;;;9.32;3.38;;;12.10;83.90;;;;;;5033223;28;20148;-81
2022/02/27 09:30:32;;;;;;;30.60;16.48;;;13.10;83.70;;;;;;5035852;28;20132;-81
2022/02/27 09:32:59;;;;;;;11.13;6.63;;;13.70;82.30;;;;;;5035402;28;20076;-86
2022/02/27 09:35:28;;;;;;;125.13;50.70;;;15.70;77.20;;;;;;5039298;28;20084;-84
2022/02/27 09:37:57;;;;;;;143.20;51.35;;;16.20;71.70;;;;;;5036723;28;20057;-85
2022/02/27 09:40:24;;;;;;;151.82;57.15;;;16.70;69.60;;;;;;5039328;28;20049;-84
2022/02/27 09:42:54;;;;;;;98.32;34.78;;;16.10;68.60;;;;;;5041116;28;20052;-84
2022/02/27 09:45:23;;;;;;;112.90;41.33;;;15.50;70.80;;;;;;5042136;28;20408;-86
2022/02/27 09:47:51;;;;;;;177.05;66.40;;;12.70;77.40;;;;;;5041382;28;20131;-85
2022/02/27 09:50:22;;;;;;;33.47;11.15;;;12.70;78.90;;;;;;5042755;28;20104;-86
2022/02/27 09:52:49;;;;;;;55.95;24.27;;;12.40;79.70;;;;;;5040908;28;20057;-84
2022/02/27 09:55:17;;;;;;;8.60;4.97;;;11.40;83.60;;;;;;5040919;28;20095;-86
2022/02/27 09:57:46;;;;;;;41.20;17.02;;;11.40;84.50;;;;;;5041112;28;20081;-86
2022/02/27 10:00:15;;;;;;;32.67;15.38;;;10.00;90.10;;;;;;5040930;28;20084;-86
2022/02/27 10:03:01;;;;;;;15.27;5.28;;;11.10;91.80;;;;;;5041264;28;20053;-85
2022/02/27 10:05:29;;;;;;;40.97;22.48;;;12.20;89.50;;;;;;5042476;28;20052;-85
2022/02/27 10:08:00;;;;;;;38.00;20.42;;;12.00;86.50;;;;;;5040442;28;20057;-86
2022/02/27 10:10:28;;;;;;;11.07;7.80;;;12.10;82.90;;;;;;5040405;28;20140;-86
2022/02/27 10:12:56;;;;;;;10.77;5.25;;;11.50;84.80;;;;;;5041149;28;20054;-85
2022/02/27 10:15:23;;;;;;;7.47;4.57;;;10.40;87.20;;;;;;5041148;28;20076;-86
2022/02/27 10:17:55;;;;;;;25.60;13.45;;;10.50;89.40;;;;;;5041472;28;20057;-85
2022/02/27 10:20:25;;;;;;;7.97;4.45;;;9.60;89.10;;;;;;5039622;28;20077;-85
2022/02/27 10:22:53;;;;;;;9.18;3.70;;;9.60;89.30;;;;;;5041668;28;20050;-86
2022/02/27 10:25:22;;;;;;;5.82;2.80;;;9.40;90.30;;;;;;5040338;28;20072;-85
2022/02/27 10:27:55;;;;;;;64.38;6.35;;;10.70;87.10;;;;;;5041553;28;20061;-82
2022/02/27 10:30:24;;;;;;;9.45;3.67;;;11.60;85.40;;;;;;5041559;28;20088;-83
2022/02/27 10:32:56;;;;;;;3.75;2.20;;;12.40;79.40;;;;;;5035234;28;20073;-82
2022/02/27 10:35:55;;;;;;;8.18;2.53;;;13.40;69.30;;;;;;5036566;28;20060;-82
2022/02/27 10:41:21;;;;;;;3.78;2.00;;;13.70;67.30;;;;;;5036714;28;20045;-80
2022/02/27 10:43:49;;;;;;;5.30;2.95;;;15.60;65.50;;;;;;5035168;28;20093;-80
2022/02/27 10:46:27;;;;;;;4.38;2.38;;;16.70;58.20;;;;;;5035865;28;20099;-79
2022/02/27 10:48:54;;;;;;;2.92;1.90;;;16.80;56.90;;;;;;5035127;28;20057;-79
2022/02/27 10:51:22;;;;;;;4.10;1.77;;;17.10;54.90;;;;;;5040915;28;20136;-79
2022/02/27 10:53:49;;;;;;;7.45;2.50;;;16.50;55.40;;;;;;5039291;28;20145;-79
2022/02/27 10:56:32;;;;;;;2.58;1.42;;;16.40;55.00;;;;;;5039240;28;20140;-80
2022/02/27 10:59:12;;;;;;;4.13;2.00;;;16.60;54.50;;;;;;5039483;28;20109;-79
2022/02/27 11:01:39;;;;;;;4.07;2.00;;;17.30;53.60;;;;;;5038969;28;20080;-80
2022/02/27 11:04:07;;;;;;;7.88;2.17;;;17.50;52.40;;;;;;5040047;28;20590;-79
2022/02/27 11:06:34;;;;;;;3.95;1.90;;;16.60;52.70;;;;;;5040694;28;20060;-82
2022/02/27 11:09:01;;;;;;;4.10;2.40;;;16.00;53.60;;;;;;5040069;28;20490;-79
2022/02/27 11:11:33;;;;;;;7.60;2.40;;;17.40;54.10;;;;;;5039849;28;20891;-80
2022/02/27 11:14:02;;;;;;;5.20;2.97;;;16.80;54.50;;;;;;5047865;28;20072;-85
2022/02/27 11:16:29;;;;;;;7.78;2.38;;;15.50;56.00;;;;;;5049161;28;20053;-83
2022/02/27 11:18:56;;;;;;;7.78;2.60;;;16.00;57.40;;;;;;5050089;28;20053;-83
2022/02/27 11:21:25;;;;;;;4.32;2.85;;;15.40;56.60;;;;;;5047897;28;20046;-79
2022/02/27 11:23:52;;;;;;;4.95;3.97;;;16.00;55.10;;;;;;5039703;28;20073;-79
2022/02/27 11:26:19;;;;;;;3.85;3.13;;;15.60;54.90;;;;;;5043543;28;20065;-80
2022/02/27 11:28:46;;;;;;;5.18;3.63;;;16.10;55.00;;;;;;5051142;28;20056;-82
2022/02/27 11:31:16;;;;;;;5.65;3.17;;;14.40;56.60;;;;;;5048770;28;20046;-81
2022/02/27 11:33:43;;;;;;;4.57;2.60;;;13.30;59.40;;;;;;5041340;28;20550;-82
2022/02/27 11:36:20;;;;;;;4.07;2.80;;;13.00;63.60;;;;;;5038555;28;20072;-81
2022/02/27 11:39:02;;;;;;;6.70;3.22;;;14.00;61.50;;;;;;5038442;28;20212;-79
2022/02/27 11:41:50;;;;;;;4.30;3.15;;;14.70;60.90;;;;;;5038456;28;20072;-78
2022/02/27 11:44:17;;;;;;;6.20;3.20;;;16.00;57.90;;;;;;5037396;28;20505;-80
2022/02/27 11:46:46;;;;;;;6.80;2.97;;;14.20;57.20;;;;;;5039297;28;20046;-82
2022/02/27 11:49:18;;;;;;;3.30;2.40;;;13.50;59.10;;;;;;5038482;28;20054;-82
2022/02/27 11:52:05;;;;;;;3.83;2.50;;;13.80;61.80;;;;;;5038510;28;20132;-80
2022/02/27 11:54:50;;;;;;;6.82;2.90;;;15.80;59.40;;;;;;5037444;28;20100;-79
2022/02/27 11:57:21;;;;;;;4.68;2.83;;;16.60;56.50;;;;;;5036687;28;20049;-81
2022/02/27 11:59:56;;;;;;;3.92;3.10;;;18.80;55.00;;;;;;5036527;28;20041;-80
2022/02/27 12:02:39;;;;;;;8.95;2.78;;;16.40;53.90;;;;;;5036306;28;20088;-81
2022/02/27 12:05:09;;;;;;;7.32;3.05;;;16.40;54.70;;;;;;5037485;28;20132;-81
2022/02/27 12:08:05;;;;;;;8.43;2.97;;;16.60;54.70;;;;;;5036881;28;20045;-81
2022/02/27 12:10:41;;;;;;;21.40;3.80;;;16.80;54.20;;;;;;5037852;28;20111;-81
2022/02/27 12:13:17;;;;;;;12.98;3.72;;;18.10;54.50;;;;;;5036529;28;20053;-81
2022/02/27 12:15:45;;;;;;;8.18;3.55;;;19.00;51.40;;;;;;5036985;28;20050;-81
2022/02/27 12:18:17;;;;;;;5.75;2.72;;;18.30;51.20;;;;;;5036619;28;20053;-80
2022/02/27 12:20:51;;;;;;;7.67;5.17;;;17.40;53.80;;;;;;5036781;28;20127;-80
2022/02/27 12:23:30;;;;;;;5.65;3.97;;;17.00;53.80;;;;;;5036361;28;20288;-80
2022/02/27 12:25:59;;;;;;;6.00;3.72;;;16.60;53.70;;;;;;5036900;28;20069;-80
2022/02/27 12:28:59;;;;;;;5.75;3.90;;;16.80;54.70;;;;;;5036669;28;20113;-80
2022/02/27 12:31:29;;;;;;;4.60;2.58;;;18.00;55.10;;;;;;5004243;28;20132;-81
2022/02/27 12:34:09;;;;;;;6.35;2.60;;;18.90;53.70;;;;;;5036315;28;20095;-80
2022/02/27 12:36:36;;;;;;;10.77;3.33;;;19.00;50.00;;;;;;5036428;28;20057;-81
2022/02/27 12:39:09;;;;;;;5.68;2.95;;;17.90;52.40;;;;;;5035939;28;20079;-80
2022/02/27 12:41:51;;;;;;;5.22;3.35;;;16.60;53.00;;;;;;5037577;28;20470;-85
2022/02/27 12:44:40;;;;;;;5.82;3.08;;;15.40;54.10;;;;;;5040039;28;20113;-84
2022/02/27 12:47:10;;;;;;;77.97;45.33;;;14.20;57.00;;;;;;5043707;28;20053;-83
2022/02/27 12:52:43;;;;;;;4.30;2.67;;;12.30;59.50;;;;;;5038202;28;20049;-80
2022/02/27 12:55:19;;;;;;;8.48;3.30;;;12.50;60.10;;;;;;5036805;28;20080;-80
2022/02/27 12:57:55;;;;;;;9.82;3.53;;;13.00;60.50;;;;;;5039565;28;20053;-80
2022/02/27 13:00:25;;;;;;;4.47;3.03;;;13.40;60.80;;;;;;5036703;28;20049;-80
2022/02/27 13:02:55;;;;;;;13.20;3.92;;;13.10;59.60;;;;;;5037515;28;20052;-81